createdAt,value
2022-11-14T00:00:43.562Z,83.43
2022-11-14T00:03:29.100Z,38.63
2022-11-14T00:06:14.530Z,50.03
2022-11-14T00:09:00.535Z,22.55
2022-11-14T00:11:45.863Z,13.88
2022-11-14T00:14:32.140Z,18.75
2022-11-14T00:17:18.021Z,31.67
2022-11-14T00:20:05.323Z,45.40
2022-11-14T00:22:50.637Z,61.63
2022-11-14T00:25:35.965Z,105.70
2022-11-14T00:28:21.587Z,121.80
2022-11-14T00:31:07.020Z,76.50
2022-11-14T00:33:52.692Z,169.77
2022-11-14T00:36:38.038Z,107.85
2022-11-14T00:39:23.696Z,149.77
2022-11-14T00:42:09.234Z,173.68
2022-11-14T00:44:54.825Z,110.50
2022-11-14T00:47:40.379Z,110.95
2022-11-14T00:50:25.898Z,121.53
2022-11-14T00:53:11.598Z,116.43
2022-11-14T00:55:56.833Z,79.97
2022-11-14T00:58:42.304Z,110.00
2022-11-14T01:01:27.795Z,117.18
2022-11-14T01:04:13.348Z,70.88
2022-11-14T01:06:58.814Z,50.17
2022-11-14T01:09:44.376Z,52.15
2022-11-14T01:12:29.462Z,41.22
2022-11-14T01:15:15.077Z,51.38
2022-11-14T01:18:00.604Z,36.75
2022-11-14T01:20:47.344Z,14.23
2022-11-14T01:23:32.778Z,29.10
2022-11-14T01:26:17.920Z,75.82
2022-11-14T01:29:03.187Z,71.60
2022-11-14T01:31:48.304Z,48.75
2022-11-14T01:34:33.531Z,41.30
2022-11-14T01:37:18.527Z,37.63
2022-11-14T01:40:04.185Z,46.30
2022-11-14T01:43:17.201Z,31.95
2022-11-14T01:46:24.059Z,56.28
2022-11-14T01:49:21.949Z,25.13
2022-11-14T01:52:18.051Z,21.70
2022-11-14T01:55:07.088Z,20.63
2022-11-14T01:57:52.604Z,25.95
2022-11-14T02:00:38.381Z,33.88
2022-11-14T02:03:24.471Z,33.40
2022-11-14T02:06:13.125Z,68.05
2022-11-14T02:09:02.351Z,51.33
2022-11-14T02:11:48.201Z,44.80
2022-11-14T02:14:35.588Z,72.22
2022-11-14T02:20:21.527Z,41.58
2022-11-14T02:23:06.764Z,36.38
2022-11-14T02:25:52.838Z,64.43
2022-11-14T02:28:38.213Z,98.20
2022-11-14T02:31:23.796Z,31.80
2022-11-14T02:34:08.982Z,55.35
2022-11-14T02:36:54.476Z,40.35
2022-11-14T02:39:39.523Z,70.13
2022-11-14T02:42:25.274Z,73.65
2022-11-14T02:45:12.570Z,54.90
2022-11-14T02:50:43.688Z,61.70
2022-11-14T02:53:28.865Z,29.55
2022-11-14T02:56:14.077Z,29.25
2022-11-14T02:58:59.455Z,32.85
2022-11-14T03:01:44.703Z,31.10
2022-11-14T03:04:30.119Z,33.97
2022-11-14T03:07:15.720Z,37.17
2022-11-14T03:10:01.134Z,19.08
2022-11-14T03:12:46.468Z,37.20
2022-11-14T03:15:31.715Z,26.67
2022-11-14T03:18:17.135Z,36.10
2022-11-14T03:21:10.888Z,33.72
2022-11-14T03:23:56.015Z,52.78
2022-11-14T03:26:41.683Z,51.13
2022-11-14T03:29:27.023Z,40.67
2022-11-14T03:32:12.400Z,24.42
2022-11-14T03:34:59.013Z,14.35
2022-11-14T03:37:44.411Z,11.35
2022-11-14T03:40:29.720Z,24.92
2022-11-14T03:43:15.148Z,30.52
2022-11-14T03:46:02.482Z,22.83
2022-11-14T03:48:48.182Z,46.53
2022-11-14T03:51:33.898Z,53.70
2022-11-14T03:54:19.358Z,43.55
2022-11-14T03:57:04.830Z,34.63
2022-11-14T03:59:50.635Z,64.93
2022-11-14T04:02:36.384Z,50.75
2022-11-14T04:05:23.089Z,66.88
2022-11-14T04:08:08.506Z,73.72
2022-11-14T04:10:53.741Z,27.92
2022-11-14T04:13:39.048Z,46.88
2022-11-14T04:16:24.430Z,51.85
2022-11-14T04:19:10.177Z,78.85
2022-11-14T04:21:55.668Z,65.53
2022-11-14T04:24:41.031Z,53.53
2022-11-14T04:27:26.688Z,67.40
2022-11-14T04:30:12.218Z,42.50
2022-11-14T04:32:57.929Z,100.65
2022-11-14T04:35:43.371Z,40.65
2022-11-14T04:38:29.034Z,56.50
2022-11-14T04:41:14.438Z,56.55
2022-11-14T04:43:59.710Z,38.30
2022-11-14T04:46:45.283Z,26.30
2022-11-14T04:49:31.190Z,26.20
2022-11-14T04:52:16.420Z,15.77
2022-11-14T04:55:01.998Z,35.70
2022-11-14T04:57:47.249Z,19.35
2022-11-14T05:00:32.587Z,28.20
2022-11-14T05:03:18.245Z,23.33
2022-11-14T05:06:04.470Z,20.48
2022-11-14T05:08:50.018Z,20.88
2022-11-14T05:11:35.081Z,22.88
2022-11-14T05:14:20.713Z,51.22
2022-11-14T05:17:06.025Z,51.30
2022-11-14T05:19:51.677Z,43.35
2022-11-14T05:22:37.081Z,38.22
2022-11-14T05:25:23.397Z,56.50
2022-11-14T05:28:08.828Z,41.38
2022-11-14T05:31:01.127Z,66.78
2022-11-14T05:33:47.155Z,53.63
2022-11-14T05:36:32.825Z,51.13
2022-11-14T05:39:18.358Z,50.17
2022-11-14T05:42:03.745Z,49.10
2022-11-14T05:44:49.620Z,95.43
2022-11-14T05:47:34.924Z,57.50
2022-11-14T05:50:20.614Z,71.35
2022-11-14T05:53:06.124Z,72.45
2022-11-14T05:55:51.158Z,53.45
2022-11-14T05:58:37.238Z,84.20
2022-11-14T06:01:22.434Z,49.08
2022-11-14T06:04:07.582Z,29.88
2022-11-14T06:06:52.892Z,36.38
2022-11-14T06:09:38.120Z,31.48
2022-11-14T06:12:23.704Z,32.60
2022-11-14T06:15:09.642Z,46.75
2022-11-14T06:17:55.064Z,31.80
2022-11-14T06:20:40.469Z,24.40
2022-11-14T06:23:25.922Z,29.90
2022-11-14T06:26:20.716Z,22.25
2022-11-14T06:29:05.752Z,33.33
2022-11-14T06:31:50.829Z,23.33
2022-11-14T06:34:36.169Z,16.73
2022-11-14T06:37:21.435Z,32.70
2022-11-14T06:40:07.620Z,31.25
2022-11-14T06:42:55.986Z,19.58
2022-11-14T06:45:42.068Z,25.85
2022-11-14T06:48:27.647Z,36.17
2022-11-14T06:51:15.335Z,40.40
2022-11-14T06:54:00.944Z,22.42
2022-11-14T06:56:46.402Z,34.45
2022-11-14T06:59:31.641Z,45.80
2022-11-14T07:02:21.749Z,38.08
2022-11-14T07:05:07.726Z,29.40
2022-11-14T07:07:53.322Z,35.08
2022-11-14T07:10:39.457Z,66.72
2022-11-14T07:13:24.934Z,48.97
2022-11-14T07:16:09.996Z,54.88
2022-11-14T07:18:56.605Z,57.13
2022-11-14T07:21:42.170Z,46.65
2022-11-14T07:24:27.603Z,72.63
2022-11-14T07:27:13.031Z,86.55
2022-11-14T07:29:58.166Z,69.78
2022-11-14T07:32:43.419Z,87.35
2022-11-14T07:35:28.856Z,96.82
2022-11-14T07:38:14.273Z,85.28
2022-11-14T07:41:05.816Z,90.22
2022-11-14T07:43:51.787Z,92.32
2022-11-14T07:47:12.102Z,97.32
2022-11-14T07:49:57.508Z,89.25
2022-11-14T07:52:42.872Z,94.70
2022-11-14T07:55:28.150Z,96.63
2022-11-14T07:58:13.707Z,98.05
2022-11-14T08:01:02.862Z,103.40
2022-11-14T08:03:48.577Z,115.32
2022-11-14T08:07:06.896Z,121.55
2022-11-14T08:09:52.084Z,137.13
2022-11-14T08:12:39.779Z,136.57
2022-11-14T08:15:24.964Z,134.73
2022-11-14T08:18:10.468Z,138.95
2022-11-14T08:20:57.730Z,152.50
2022-11-14T08:23:45.330Z,135.07
2022-11-14T08:26:34.276Z,134.45
2022-11-14T08:29:20.396Z,142.95
2022-11-14T08:32:05.732Z,140.73
2022-11-14T08:34:50.906Z,138.13
2022-11-14T08:37:36.251Z,119.30
2022-11-14T08:40:21.552Z,107.65
2022-11-14T08:43:07.069Z,109.53
2022-11-14T08:45:52.271Z,128.85
2022-11-14T08:48:37.451Z,115.53
2022-11-14T08:51:22.765Z,111.88
2022-11-14T08:54:08.415Z,101.75
2022-11-14T08:56:53.923Z,107.25
2022-11-14T08:59:39.388Z,103.07
2022-11-14T09:02:24.711Z,106.38
2022-11-14T09:05:10.624Z,103.85
2022-11-14T09:07:56.217Z,100.85
2022-11-14T09:10:41.638Z,92.25
2022-11-14T09:13:27.811Z,103.45
2022-11-14T09:16:13.952Z,91.10
2022-11-14T09:18:59.804Z,81.10
2022-11-14T09:21:45.564Z,84.28
2022-11-14T09:24:31.612Z,75.53
2022-11-14T09:27:17.284Z,80.60
2022-11-14T09:30:02.829Z,72.13
2022-11-14T09:32:48.708Z,68.68
2022-11-14T09:35:34.411Z,64.25
2022-11-14T09:38:20.174Z,68.00
2022-11-14T09:41:45.218Z,57.03
2022-11-14T10:17:48.046Z,43.92
2022-11-14T10:20:35.406Z,48.97
2022-11-14T10:23:47.045Z,58.10
2022-11-14T10:26:38.560Z,61.28
2022-11-14T10:29:51.313Z,57.22
2022-11-14T10:32:48.636Z,52.35
2022-11-14T10:35:44.073Z,59.33
2022-11-14T10:38:36.908Z,48.40
2022-11-14T10:41:49.885Z,53.42
2022-11-14T10:44:38.406Z,49.28
2022-11-14T10:47:25.698Z,49.83
2022-11-14T10:50:23.266Z,54.10
2022-11-14T10:53:23.822Z,48.45
2022-11-14T10:56:12.964Z,56.92
2022-11-14T10:58:58.432Z,52.15
2022-11-14T11:01:46.571Z,50.42
2022-11-14T11:04:35.514Z,55.47
2022-11-14T11:07:45.093Z,45.65
2022-11-14T11:10:50.118Z,48.80
2022-11-14T11:13:36.830Z,49.28
2022-11-14T11:16:24.529Z,41.83
2022-11-14T11:19:27.263Z,44.40
2022-11-14T11:22:39.188Z,42.75
2022-11-14T11:25:27.880Z,37.75
2022-11-14T11:28:22.041Z,48.30
2022-11-14T11:31:09.854Z,45.72
2022-11-14T11:33:55.607Z,43.67
2022-11-14T11:36:47.416Z,40.40
2022-11-14T11:39:39.655Z,34.42
2022-11-14T11:43:23.777Z,38.95
2022-11-14T11:45:43.645Z,44.83
2022-11-14T11:48:38.277Z,49.88
2022-11-14T11:51:27.136Z,36.97
2022-11-14T11:54:22.806Z,44.15
2022-11-14T11:57:20.088Z,36.55
2022-11-14T12:00:22.011Z,53.15
2022-11-14T12:03:14.188Z,46.15
2022-11-14T12:06:24.858Z,46.85
2022-11-14T12:09:48.659Z,47.67
2022-11-14T12:12:44.862Z,43.72
2022-11-14T12:15:55.956Z,52.53
2022-11-14T12:19:03.078Z,46.85
2022-11-14T12:21:59.077Z,42.95
2022-11-14T12:25:06.195Z,30.05
2022-11-14T12:28:08.621Z,33.45
2022-11-14T12:30:59.938Z,39.53
2022-11-14T12:34:01.117Z,33.20
2022-11-14T12:36:47.245Z,40.15
2022-11-14T12:39:33.230Z,26.38
2022-11-14T12:42:21.329Z,46.13
2022-11-14T12:45:42.030Z,40.80
2022-11-14T12:48:27.330Z,30.60
2022-11-14T12:51:30.321Z,33.60
2022-11-14T12:54:43.704Z,33.97
2022-11-14T12:58:19.096Z,35.65
2022-11-14T13:01:11.112Z,37.65
2022-11-14T13:04:23.851Z,32.10
2022-11-14T13:07:39.062Z,41.65
2022-11-14T13:10:30.660Z,39.13
2022-11-14T13:13:35.842Z,40.53
2022-11-14T13:16:50.783Z,39.00
2022-11-14T13:20:04.593Z,34.20
2022-11-14T13:22:50.030Z,33.97
2022-11-14T13:25:35.548Z,34.33
2022-11-14T13:28:38.667Z,34.33
2022-11-14T13:31:36.262Z,29.50
2022-11-14T13:34:45.320Z,36.95
2022-11-14T13:37:42.793Z,34.60
2022-11-14T13:43:44.099Z,35.70
2022-11-14T13:46:55.045Z,32.70
2022-11-14T13:50:00.245Z,33.03
2022-11-14T13:52:48.772Z,28.02
2022-11-14T13:55:52.703Z,31.85
2022-11-14T13:59:22.571Z,30.05
2022-11-14T14:02:11.097Z,26.95
2022-11-14T14:05:11.157Z,30.45
2022-11-14T14:08:53.584Z,27.98
2022-11-14T14:11:57.216Z,31.08
2022-11-14T14:14:51.264Z,33.20
2022-11-14T14:17:43.458Z,29.60
2022-11-14T14:20:36.840Z,30.95
2022-11-14T14:23:31.155Z,31.77
2022-11-14T14:26:44.202Z,35.38
2022-11-14T14:29:56.056Z,32.13
2022-11-14T14:32:41.300Z,28.92
2022-11-14T14:35:31.854Z,29.90
2022-11-14T14:38:26.236Z,31.95
2022-11-14T14:41:14.529Z,26.52
2022-11-14T14:44:00.386Z,29.92
2022-11-14T14:46:45.501Z,28.42
2022-11-14T14:49:39.407Z,31.15
2022-11-14T14:52:34.464Z,26.65
2022-11-14T14:55:26.253Z,29.55
2022-11-14T14:58:23.721Z,28.23
2022-11-14T15:01:15.245Z,30.13
2022-11-14T15:04:09.138Z,24.38
2022-11-14T15:06:57.449Z,27.35
2022-11-14T15:10:01.764Z,32.13
2022-11-14T15:12:47.963Z,25.65
2022-11-14T15:15:34.650Z,29.37
2022-11-14T15:18:31.846Z,29.15
2022-11-14T15:21:20.837Z,28.45
2022-11-14T15:24:23.224Z,27.73
2022-11-14T15:27:20.487Z,31.13
2022-11-14T15:30:19.529Z,26.95
2022-11-14T15:33:25.045Z,27.42
2022-11-14T15:36:13.817Z,30.63
2022-11-14T15:39:24.689Z,25.10
2022-11-14T15:42:21.469Z,23.63
2022-11-14T15:45:28.752Z,24.05
2022-11-14T15:48:18.982Z,28.58
2022-11-14T15:51:04.581Z,26.23
2022-11-14T15:53:52.125Z,26.15
2022-11-14T15:56:37.460Z,24.77
2022-11-14T15:59:23.203Z,27.77
2022-11-14T16:02:58.523Z,31.88
2022-11-14T16:05:46.104Z,28.08
2022-11-14T16:08:31.784Z,32.35
2022-11-14T16:11:17.300Z,34.53
2022-11-14T16:14:02.643Z,26.55
2022-11-14T16:16:47.949Z,25.58
2022-11-14T16:19:33.141Z,23.70
2022-11-14T16:22:18.785Z,26.48
2022-11-14T16:25:04.823Z,30.42
2022-11-14T16:27:50.396Z,31.02
2022-11-14T16:30:35.721Z,30.25
2022-11-14T16:33:20.901Z,32.28
2022-11-14T16:36:06.672Z,30.63
2022-11-14T16:38:52.658Z,28.08
2022-11-14T16:41:38.925Z,32.47
2022-11-14T16:44:24.895Z,28.52
2022-11-14T16:47:14.709Z,35.63
2022-11-14T16:50:01.485Z,32.75
2022-11-14T16:52:46.980Z,28.50
2022-11-14T16:55:32.652Z,32.25
2022-11-14T16:58:18.101Z,30.15
2022-11-14T17:01:03.521Z,25.80
2022-11-14T17:03:49.374Z,30.10
2022-11-14T17:06:34.777Z,27.95
2022-11-14T17:09:20.029Z,28.98
2022-11-14T17:12:06.191Z,27.02
2022-11-14T17:14:51.483Z,24.92
2022-11-14T17:17:37.106Z,24.88
2022-11-14T17:20:22.232Z,24.05
2022-11-14T17:23:07.766Z,20.63
2022-11-14T17:25:53.790Z,22.70
2022-11-14T17:28:40.565Z,22.15
2022-11-14T17:31:26.188Z,22.13
2022-11-14T17:34:11.437Z,22.90
2022-11-14T17:36:56.979Z,19.25
2022-11-14T17:39:42.355Z,24.88
2022-11-14T17:42:28.053Z,20.65
2022-11-14T17:45:13.520Z,24.88
2022-11-14T17:47:59.453Z,17.13
2022-11-14T17:50:44.949Z,19.58
2022-11-14T17:53:32.555Z,20.05
2022-11-14T17:56:23.861Z,16.58
2022-11-14T17:59:09.532Z,17.88
2022-11-14T18:01:59.825Z,16.90
2022-11-14T18:04:46.431Z,19.48
2022-11-14T18:07:33.250Z,16.17
2022-11-14T18:10:18.674Z,16.58
2022-11-14T18:13:05.329Z,14.07
2022-11-14T18:15:50.605Z,20.20
2022-11-14T18:18:37.364Z,17.45
2022-11-14T18:21:24.876Z,23.27
2022-11-14T18:26:59.182Z,21.10
2022-11-14T18:29:44.659Z,20.95
2022-11-14T18:32:30.224Z,36.40
2022-11-14T18:35:15.778Z,23.38
2022-11-14T18:38:01.388Z,20.15
2022-11-14T18:40:47.060Z,20.17
2022-11-14T18:43:33.458Z,21.30
2022-11-14T18:46:21.752Z,21.00
2022-11-14T18:49:07.125Z,21.10
2022-11-14T18:51:52.317Z,20.75
2022-11-14T18:54:38.117Z,24.52
2022-11-14T18:57:23.584Z,24.05
2022-11-14T19:00:09.813Z,18.83
2022-11-14T19:02:54.929Z,19.58
2022-11-14T19:05:40.616Z,20.50
2022-11-14T19:08:26.132Z,20.05
2022-11-14T19:11:33.931Z,20.15
2022-11-14T19:14:20.723Z,17.88
2022-11-14T19:17:07.271Z,20.30
2022-11-14T19:19:55.828Z,18.10
2022-11-14T19:22:41.411Z,16.63
2022-11-14T19:25:27.290Z,18.67
2022-11-14T19:28:12.788Z,17.95
2022-11-14T19:31:02.854Z,16.40
2022-11-14T19:33:48.438Z,15.10
2022-11-14T19:39:39.850Z,17.58
2022-11-14T19:42:25.313Z,17.65
2022-11-14T19:45:11.028Z,15.63
2022-11-14T19:47:56.496Z,22.05
2022-11-14T19:50:41.933Z,18.45
2022-11-14T19:53:27.594Z,16.33
2022-11-14T19:56:18.037Z,16.17
2022-11-14T19:59:09.609Z,20.17
2022-11-14T20:01:56.426Z,15.23
2022-11-14T20:04:43.673Z,20.38
2022-11-14T20:07:30.438Z,18.75
2022-11-14T20:10:16.090Z,21.20
2022-11-14T20:13:01.549Z,15.95
2022-11-14T20:15:47.218Z,18.83
2022-11-14T20:18:32.653Z,18.75
2022-11-14T20:21:21.394Z,20.42
2022-11-14T20:24:06.958Z,19.00
2022-11-14T20:26:52.717Z,17.63
2022-11-14T20:29:38.298Z,18.17
2022-11-14T20:32:24.025Z,16.98
2022-11-14T20:35:09.484Z,16.77
2022-11-14T20:37:55.063Z,21.45
2022-11-14T20:40:40.477Z,17.33
2022-11-14T20:43:25.809Z,17.73
2022-11-14T20:46:16.554Z,18.67
2022-11-14T20:49:04.342Z,18.73
2022-11-14T20:51:49.833Z,16.30
2022-11-14T20:54:35.233Z,15.52
2022-11-14T20:57:21.079Z,15.35
2022-11-14T21:00:07.990Z,15.23
2022-11-14T21:02:53.808Z,16.45
2022-11-14T21:05:39.951Z,21.30
2022-11-14T21:08:25.665Z,20.52
2022-11-14T21:11:18.157Z,17.17
2022-11-14T21:14:04.723Z,19.27
2022-11-14T21:16:50.139Z,18.75
2022-11-14T21:19:35.528Z,17.17
2022-11-14T21:22:21.100Z,19.15
2022-11-14T21:25:06.852Z,16.38
2022-11-14T21:27:52.238Z,17.70
2022-11-14T21:30:37.618Z,18.08
2022-11-14T21:33:23.371Z,18.33
2022-11-14T21:36:30.115Z,19.08
2022-11-14T21:39:16.848Z,16.30
2022-11-14T21:42:03.161Z,15.85
2022-11-14T21:44:48.409Z,17.92
2022-11-14T21:47:34.522Z,16.02
2022-11-14T21:50:19.955Z,19.33
2022-11-14T21:53:16.023Z,16.35
2022-11-14T21:56:18.596Z,15.35
2022-11-14T21:59:13.902Z,14.82
2022-11-14T22:02:18.580Z,15.75
2022-11-14T22:05:04.071Z,14.95
2022-11-14T22:07:49.715Z,16.90
2022-11-14T22:10:35.318Z,15.00
2022-11-14T22:13:20.753Z,13.82
2022-11-14T22:16:07.344Z,17.08
2022-11-14T22:18:53.687Z,17.42
2022-11-14T22:21:39.029Z,18.50
2022-11-14T22:24:24.241Z,16.73
2022-11-14T22:27:10.019Z,17.25
2022-11-14T22:29:55.737Z,16.70
2022-11-14T22:32:41.032Z,17.20
2022-11-14T22:35:26.308Z,16.80
2022-11-14T22:38:11.758Z,14.73
2022-11-14T22:40:58.403Z,15.27
2022-11-14T22:43:43.877Z,16.07
2022-11-14T22:46:29.393Z,15.75
2022-11-14T22:49:19.692Z,12.98
2022-11-14T22:52:06.288Z,14.10
2022-11-14T22:54:51.724Z,16.33
2022-11-14T22:57:37.028Z,13.45
2022-11-14T23:00:22.397Z,12.85
2022-11-14T23:03:07.809Z,13.35
2022-11-14T23:05:53.404Z,11.15
2022-11-14T23:08:39.660Z,10.43
2022-11-14T23:11:27.208Z,9.75
2022-11-14T23:14:14.328Z,8.65
2022-11-14T23:16:59.824Z,8.45
2022-11-14T23:19:45.030Z,7.30
2022-11-14T23:22:30.418Z,11.75
2022-11-14T23:25:16.209Z,9.88
2022-11-14T23:28:01.737Z,12.25
2022-11-14T23:30:47.375Z,8.77
2022-11-14T23:33:33.384Z,9.73
2022-11-14T23:36:19.352Z,9.27
2022-11-14T23:39:04.834Z,8.32
2022-11-14T23:41:50.075Z,6.72
2022-11-14T23:44:35.504Z,7.35
2022-11-14T23:47:21.136Z,9.80
2022-11-14T23:50:06.767Z,9.43
2022-11-14T23:52:52.184Z,8.10
2022-11-14T23:55:38.367Z,7.68
2022-11-14T23:58:25.748Z,7.32
